sensor_id;sensor_type;location;lat;lon;timestamp;P1;durP1;ratioP1;P2;durP2;ratioP2
61477;SDS011;47345;52.334;10.392;2024-03-02T00:02:23;19.90;;;13.30;;
61477;SDS011;47345;52.334;10.392;2024-03-02T00:04:54;22.80;;;14.00;;
61477;SDS011;47345;52.334;10.392;2024-03-02T00:07:24;22.20;;;13.00;;
61477;SDS011;47345;52.334;10.392;2024-03-02T00:09:55;22.90;;;13.50;;
61477;SDS011;47345;52.334;10.392;2024-03-02T00:12:26;21.80;;;13.10;;
61477;SDS011;47345;52.334;10.392;2024-03-02T00:14:56;24.60;;;13.60;;
61477;SDS011;47345;52.334;10.392;2024-03-02T00:17:30;21.00;;;12.50;;
61477;SDS011;47345;52.334;10.392;2024-03-02T00:20:00;23.90;;;13.30;;
61477;SDS011;47345;52.334;10.392;2024-03-02T00:22:32;21.40;;;13.00;;
61477;SDS011;47345;52.334;10.392;2024-03-02T00:25:06;22.80;;;12.60;;
61477;SDS011;47345;52.334;10.392;2024-03-02T00:27:38;23.20;;;13.50;;
61477;SDS011;47345;52.334;10.392;2024-03-02T00:30:12;21.40;;;12.70;;
61477;SDS011;47345;52.334;10.392;2024-03-02T00:33:10;20.80;;;12.30;;
61477;SDS011;47345;52.334;10.392;2024-03-02T00:35:43;22.40;;;12.70;;
61477;SDS011;47345;52.334;10.392;2024-03-02T00:38:14;21.60;;;13.00;;
61477;SDS011;47345;52.334;10.392;2024-03-02T00:40:45;22.70;;;12.90;;
61477;SDS011;47345;52.334;10.392;2024-03-02T00:46:17;22.40;;;13.30;;
61477;SDS011;47345;52.334;10.392;2024-03-02T00:48:50;21.70;;;12.50;;
61477;SDS011;47345;52.334;10.392;2024-03-02T00:51:23;20.80;;;12.80;;
61477;SDS011;47345;52.334;10.392;2024-03-02T00:53:57;20.20;;;12.40;;
61477;SDS011;47345;52.334;10.392;2024-03-02T00:56:31;20.40;;;11.90;;
61477;SDS011;47345;52.334;10.392;2024-03-02T00:59:03;20.50;;;11.70;;
61477;SDS011;47345;52.334;10.392;2024-03-02T01:01:34;20.90;;;11.60;;
61477;SDS011;47345;52.334;10.392;2024-03-02T01:04:05;19.70;;;11.40;;
61477;SDS011;47345;52.334;10.392;2024-03-02T01:06:35;21.00;;;11.70;;
61477;SDS011;47345;52.334;10.392;2024-03-02T01:09:06;17.80;;;10.80;;
61477;SDS011;47345;52.334;10.392;2024-03-02T01:11:37;22.80;;;11.60;;
61477;SDS011;47345;52.334;10.392;2024-03-02T01:14:07;18.40;;;11.40;;
61477;SDS011;47345;52.334;10.392;2024-03-02T01:16:38;18.10;;;10.90;;
61477;SDS011;47345;52.334;10.392;2024-03-02T01:19:08;17.10;;;10.60;;
61477;SDS011;47345;52.334;10.392;2024-03-02T01:21:39;18.40;;;10.40;;
61477;SDS011;47345;52.334;10.392;2024-03-02T01:24:10;17.80;;;10.80;;
61477;SDS011;47345;52.334;10.392;2024-03-02T01:26:41;20.70;;;11.00;;
61477;SDS011;47345;52.334;10.392;2024-03-02T01:29:11;17.10;;;10.80;;
61477;SDS011;47345;52.334;10.392;2024-03-02T01:31:42;20.70;;;11.50;;
61477;SDS011;47345;52.334;10.392;2024-03-02T01:34:12;17.80;;;11.00;;
61477;SDS011;47345;52.334;10.392;2024-03-02T01:36:44;18.90;;;10.50;;
61477;SDS011;47345;52.334;10.392;2024-03-02T01:39:14;18.50;;;11.10;;
61477;SDS011;47345;52.334;10.392;2024-03-02T01:41:44;15.60;;;10.70;;
61477;SDS011;47345;52.334;10.392;2024-03-02T01:44:15;22.00;;;11.60;;
61477;SDS011;47345;52.334;10.392;2024-03-02T01:46:45;19.50;;;11.90;;
61477;SDS011;47345;52.334;10.392;2024-03-02T01:49:16;15.70;;;10.60;;
61477;SDS011;47345;52.334;10.392;2024-03-02T01:51:47;16.20;;;10.50;;
61477;SDS011;47345;52.334;10.392;2024-03-02T01:54:18;21.90;;;12.10;;
61477;SDS011;47345;52.334;10.392;2024-03-02T01:56:51;21.50;;;11.90;;
61477;SDS011;47345;52.334;10.392;2024-03-02T01:59:21;22.20;;;11.30;;
61477;SDS011;47345;52.334;10.392;2024-03-02T02:01:52;21.80;;;11.90;;
61477;SDS011;47345;52.334;10.392;2024-03-02T02:04:22;17.20;;;11.20;;
61477;SDS011;47345;52.334;10.392;2024-03-02T02:06:55;19.20;;;11.20;;
61477;SDS011;47345;52.334;10.392;2024-03-02T02:09:26;19.70;;;11.80;;
61477;SDS011;47345;52.334;10.392;2024-03-02T02:11:56;17.30;;;11.40;;
61477;SDS011;47345;52.334;10.392;2024-03-02T02:14:27;16.50;;;11.20;;
61477;SDS011;47345;52.334;10.392;2024-03-02T02:16:57;18.10;;;11.30;;
61477;SDS011;47345;52.334;10.392;2024-03-02T02:19:28;19.40;;;11.30;;
61477;SDS011;47345;52.334;10.392;2024-03-02T02:21:58;17.10;;;10.80;;
61477;SDS011;47345;52.334;10.392;2024-03-02T02:24:29;17.60;;;10.50;;
61477;SDS011;47345;52.334;10.392;2024-03-02T02:27:00;23.70;;;12.90;;
61477;SDS011;47345;52.334;10.392;2024-03-02T02:29:30;22.10;;;12.60;;
61477;SDS011;47345;52.334;10.392;2024-03-02T02:32:01;20.00;;;12.30;;
61477;SDS011;47345;52.334;10.392;2024-03-02T02:34:31;21.70;;;11.70;;
61477;SDS011;47345;52.334;10.392;2024-03-02T02:37:02;19.20;;;11.50;;
61477;SDS011;47345;52.334;10.392;2024-03-02T02:39:33;17.60;;;10.90;;
61477;SDS011;47345;52.334;10.392;2024-03-02T02:42:03;21.00;;;11.80;;
61477;SDS011;47345;52.334;10.392;2024-03-02T02:44:34;20.50;;;11.80;;
61477;SDS011;47345;52.334;10.392;2024-03-02T02:47:05;19.40;;;11.00;;
61477;SDS011;47345;52.334;10.392;2024-03-02T02:49:35;21.70;;;11.60;;
61477;SDS011;47345;52.334;10.392;2024-03-02T02:52:06;15.70;;;11.10;;
61477;SDS011;47345;52.334;10.392;2024-03-02T02:54:38;18.40;;;11.60;;
61477;SDS011;47345;52.334;10.392;2024-03-02T02:57:08;21.90;;;11.40;;
61477;SDS011;47345;52.334;10.392;2024-03-02T02:59:38;19.70;;;11.30;;
61477;SDS011;47345;52.334;10.392;2024-03-02T03:02:09;21.50;;;11.90;;
61477;SDS011;47345;52.334;10.392;2024-03-02T03:04:41;19.00;;;11.80;;
61477;SDS011;47345;52.334;10.392;2024-03-02T03:07:11;22.20;;;11.40;;
61477;SDS011;47345;52.334;10.392;2024-03-02T03:09:41;19.20;;;11.50;;
61477;SDS011;47345;52.334;10.392;2024-03-02T03:12:12;18.40;;;11.60;;
61477;SDS011;47345;52.334;10.392;2024-03-02T03:14:42;18.90;;;11.30;;
61477;SDS011;47345;52.334;10.392;2024-03-02T03:17:13;21.50;;;11.90;;
61477;SDS011;47345;52.334;10.392;2024-03-02T03:19:44;20.20;;;11.50;;
61477;SDS011;47345;52.334;10.392;2024-03-02T03:22:15;21.90;;;12.20;;
61477;SDS011;47345;52.334;10.392;2024-03-02T03:24:46;21.10;;;12.10;;
61477;SDS011;47345;52.334;10.392;2024-03-02T03:27:16;21.70;;;12.30;;
61477;SDS011;47345;52.334;10.392;2024-03-02T03:29:47;21.90;;;12.90;;
61477;SDS011;47345;52.334;10.392;2024-03-02T03:32:18;18.00;;;11.70;;
61477;SDS011;47345;52.334;10.392;2024-03-02T03:34:48;21.60;;;11.40;;
61477;SDS011;47345;52.334;10.392;2024-03-02T03:37:19;22.30;;;12.50;;
61477;SDS011;47345;52.334;10.392;2024-03-02T03:39:49;24.30;;;13.10;;
61477;SDS011;47345;52.334;10.392;2024-03-02T03:42:20;21.80;;;13.30;;
61477;SDS011;47345;52.334;10.392;2024-03-02T03:44:50;19.80;;;12.10;;
61477;SDS011;47345;52.334;10.392;2024-03-02T03:47:20;21.30;;;12.00;;
61477;SDS011;47345;52.334;10.392;2024-03-02T03:49:51;18.70;;;11.50;;
61477;SDS011;47345;52.334;10.392;2024-03-02T03:52:22;21.60;;;12.70;;
61477;SDS011;47345;52.334;10.392;2024-03-02T03:54:52;21.00;;;12.90;;
61477;SDS011;47345;52.334;10.392;2024-03-02T03:57:23;20.00;;;12.00;;
61477;SDS011;47345;52.334;10.392;2024-03-02T03:59:53;19.70;;;12.20;;
61477;SDS011;47345;52.334;10.392;2024-03-02T04:02:24;22.10;;;12.30;;
61477;SDS011;47345;52.334;10.392;2024-03-02T04:04:54;20.10;;;12.10;;
61477;SDS011;47345;52.334;10.392;2024-03-02T04:07:25;22.90;;;11.90;;
61477;SDS011;47345;52.334;10.392;2024-03-02T04:09:55;22.70;;;12.40;;
61477;SDS011;47345;52.334;10.392;2024-03-02T04:12:26;25.20;;;13.10;;
61477;SDS011;47345;52.334;10.392;2024-03-02T04:14:56;19.20;;;12.30;;
61477;SDS011;47345;52.334;10.392;2024-03-02T04:17:27;19.60;;;12.40;;
61477;SDS011;47345;52.334;10.392;2024-03-02T04:19:57;19.70;;;11.90;;
61477;SDS011;47345;52.334;10.392;2024-03-02T04:22:28;24.90;;;13.10;;
61477;SDS011;47345;52.334;10.392;2024-03-02T04:24:59;25.30;;;13.70;;
61477;SDS011;47345;52.334;10.392;2024-03-02T04:27:29;20.80;;;13.10;;
61477;SDS011;47345;52.334;10.392;2024-03-02T04:30:01;19.10;;;11.40;;
61477;SDS011;47345;52.334;10.392;2024-03-02T04:32:33;21.80;;;13.00;;
61477;SDS011;47345;52.334;10.392;2024-03-02T04:35:05;22.90;;;13.20;;
61477;SDS011;47345;52.334;10.392;2024-03-02T04:37:37;27.10;;;13.30;;
61477;SDS011;47345;52.334;10.392;2024-03-02T04:40:09;23.70;;;13.00;;
61477;SDS011;47345;52.334;10.392;2024-03-02T04:42:40;21.50;;;13.20;;
61477;SDS011;47345;52.334;10.392;2024-03-02T04:45:11;24.00;;;13.60;;
61477;SDS011;47345;52.334;10.392;2024-03-02T04:47:42;20.80;;;13.00;;
61477;SDS011;47345;52.334;10.392;2024-03-02T04:50:16;22.30;;;12.30;;
61477;SDS011;47345;52.334;10.392;2024-03-02T04:52:47;21.50;;;12.10;;
61477;SDS011;47345;52.334;10.392;2024-03-02T04:55:17;29.90;;;14.40;;
61477;SDS011;47345;52.334;10.392;2024-03-02T04:58:18;19.90;;;12.40;;
61477;SDS011;47345;52.334;10.392;2024-03-02T05:00:48;19.10;;;11.90;;
61477;SDS011;47345;52.334;10.392;2024-03-02T05:03:19;23.40;;;12.70;;
61477;SDS011;47345;52.334;10.392;2024-03-02T05:05:49;28.40;;;12.90;;
61477;SDS011;47345;52.334;10.392;2024-03-02T05:08:19;22.40;;;13.60;;
61477;SDS011;47345;52.334;10.392;2024-03-02T05:10:50;22.50;;;13.30;;
61477;SDS011;47345;52.334;10.392;2024-03-02T05:13:20;25.90;;;14.10;;
61477;SDS011;47345;52.334;10.392;2024-03-02T05:15:50;23.80;;;13.80;;
61477;SDS011;47345;52.334;10.392;2024-03-02T05:18:21;22.10;;;13.20;;
61477;SDS011;47345;52.334;10.392;2024-03-02T05:20:52;23.40;;;13.70;;
61477;SDS011;47345;52.334;10.392;2024-03-02T05:23:22;22.10;;;12.80;;
61477;SDS011;47345;52.334;10.392;2024-03-02T05:25:52;19.90;;;12.90;;
61477;SDS011;47345;52.334;10.392;2024-03-02T05:28:23;20.30;;;13.10;;
61477;SDS011;47345;52.334;10.392;2024-03-02T05:30:53;25.20;;;14.20;;
61477;SDS011;47345;52.334;10.392;2024-03-02T05:33:24;20.90;;;13.00;;
61477;SDS011;47345;52.334;10.392;2024-03-02T05:35:54;21.30;;;12.30;;
61477;SDS011;47345;52.334;10.392;2024-03-02T05:38:24;18.70;;;11.60;;
61477;SDS011;47345;52.334;10.392;2024-03-02T05:40:55;23.10;;;12.80;;
61477;SDS011;47345;52.334;10.392;2024-03-02T05:43:25;22.60;;;12.30;;
61477;SDS011;47345;52.334;10.392;2024-03-02T05:45:56;19.20;;;12.00;;
61477;SDS011;47345;52.334;10.392;2024-03-02T05:48:26;23.90;;;13.10;;
61477;SDS011;47345;52.334;10.392;2024-03-02T05:50:58;20.20;;;12.50;;
61477;SDS011;47345;52.334;10.392;2024-03-02T05:53:28;21.70;;;12.00;;
61477;SDS011;47345;52.334;10.392;2024-03-02T05:55:58;22.80;;;12.50;;
61477;SDS011;47345;52.334;10.392;2024-03-02T05:58:32;20.30;;;12.50;;
61477;SDS011;47345;52.334;10.392;2024-03-02T06:01:17;20.90;;;12.50;;
61477;SDS011;47345;52.334;10.392;2024-03-02T06:03:48;26.90;;;17.30;;
61477;SDS011;47345;52.334;10.392;2024-03-02T06:06:18;21.30;;;13.20;;
61477;SDS011;47345;52.334;10.392;2024-03-02T06:08:49;29.90;;;13.00;;
61477;SDS011;47345;52.334;10.392;2024-03-02T06:11:20;19.00;;;12.80;;
61477;SDS011;47345;52.334;10.392;2024-03-02T06:13:50;21.70;;;13.20;;
61477;SDS011;47345;52.334;10.392;2024-03-02T06:16:21;22.20;;;12.50;;
61477;SDS011;47345;52.334;10.392;2024-03-02T06:18:51;21.40;;;12.60;;
61477;SDS011;47345;52.334;10.392;2024-03-02T06:21:23;20.20;;;12.90;;
61477;SDS011;47345;52.334;10.392;2024-03-02T06:23:56;22.80;;;13.10;;
61477;SDS011;47345;52.334;10.392;2024-03-02T06:26:27;21.00;;;12.90;;
61477;SDS011;47345;52.334;10.392;2024-03-02T06:28:59;24.70;;;13.30;;
61477;SDS011;47345;52.334;10.392;2024-03-02T06:31:30;23.50;;;13.30;;
61477;SDS011;47345;52.334;10.392;2024-03-02T06:34:01;20.90;;;13.20;;
61477;SDS011;47345;52.334;10.392;2024-03-02T06:36:32;22.30;;;13.10;;
61477;SDS011;47345;52.334;10.392;2024-03-02T06:39:03;29.20;;;14.00;;
61477;SDS011;47345;52.334;10.392;2024-03-02T06:41:33;24.00;;;13.70;;
61477;SDS011;47345;52.334;10.392;2024-03-02T06:44:05;24.20;;;13.90;;
61477;SDS011;47345;52.334;10.392;2024-03-02T06:46:35;22.20;;;13.10;;
61477;SDS011;47345;52.334;10.392;2024-03-02T06:49:06;22.70;;;12.80;;
61477;SDS011;47345;52.334;10.392;2024-03-02T06:51:38;22.10;;;13.70;;
61477;SDS011;47345;52.334;10.392;2024-03-02T06:54:10;23.60;;;13.90;;
61477;SDS011;47345;52.334;10.392;2024-03-02T06:56:40;27.90;;;14.20;;
61477;SDS011;47345;52.334;10.392;2024-03-02T06:59:10;23.70;;;13.60;;
61477;SDS011;47345;52.334;10.392;2024-03-02T07:01:41;21.10;;;13.80;;
61477;SDS011;47345;52.334;10.392;2024-03-02T07:04:11;23.60;;;13.80;;
61477;SDS011;47345;52.334;10.392;2024-03-02T07:06:42;24.70;;;14.50;;
61477;SDS011;47345;52.334;10.392;2024-03-02T07:09:12;21.40;;;13.50;;
61477;SDS011;47345;52.334;10.392;2024-03-02T07:11:43;22.20;;;13.40;;
61477;SDS011;47345;52.334;10.392;2024-03-02T07:14:17;25.20;;;13.40;;
61477;SDS011;47345;52.334;10.392;2024-03-02T07:16:48;25.30;;;14.50;;
61477;SDS011;47345;52.334;10.392;2024-03-02T07:19:18;25.60;;;14.80;;
61477;SDS011;47345;52.334;10.392;2024-03-02T07:21:49;25.00;;;13.70;;
61477;SDS011;47345;52.334;10.392;2024-03-02T07:24:20;22.60;;;13.40;;
61477;SDS011;47345;52.334;10.392;2024-03-02T07:26:50;21.70;;;13.20;;
61477;SDS011;47345;52.334;10.392;2024-03-02T07:29:21;21.40;;;12.90;;
61477;SDS011;47345;52.334;10.392;2024-03-02T07:31:52;22.50;;;14.00;;
61477;SDS011;47345;52.334;10.392;2024-03-02T07:34:23;22.40;;;13.60;;
61477;SDS011;47345;52.334;10.392;2024-03-02T07:36:53;23.30;;;14.20;;
61477;SDS011;47345;52.334;10.392;2024-03-02T07:39:24;24.20;;;13.90;;
61477;SDS011;47345;52.334;10.392;2024-03-02T07:41:54;21.90;;;13.70;;
61477;SDS011;47345;52.334;10.392;2024-03-02T07:44:25;22.10;;;13.70;;
61477;SDS011;47345;52.334;10.392;2024-03-02T07:46:56;22.00;;;14.30;;
61477;SDS011;47345;52.334;10.392;2024-03-02T07:49:27;22.80;;;14.10;;
61477;SDS011;47345;52.334;10.392;2024-03-02T07:51:57;24.80;;;14.90;;
61477;SDS011;47345;52.334;10.392;2024-03-02T07:54:28;24.20;;;15.20;;
61477;SDS011;47345;52.334;10.392;2024-03-02T07:56:58;25.00;;;15.40;;
61477;SDS011;47345;52.334;10.392;2024-03-02T07:59:29;24.10;;;14.90;;
61477;SDS011;47345;52.334;10.392;2024-03-02T08:02:00;22.30;;;14.10;;
61477;SDS011;47345;52.334;10.392;2024-03-02T08:04:31;24.10;;;14.70;;
61477;SDS011;47345;52.334;10.392;2024-03-02T08:07:02;24.20;;;14.70;;
61477;SDS011;47345;52.334;10.392;2024-03-02T08:09:33;23.70;;;13.90;;
61477;SDS011;47345;52.334;10.392;2024-03-02T08:12:04;26.90;;;15.50;;
61477;SDS011;47345;52.334;10.392;2024-03-02T08:14:36;24.80;;;14.90;;
61477;SDS011;47345;52.334;10.392;2024-03-02T08:17:06;22.80;;;15.10;;
61477;SDS011;47345;52.334;10.392;2024-03-02T08:19:38;23.60;;;14.60;;
61477;SDS011;47345;52.334;10.392;2024-03-02T08:22:09;23.90;;;15.70;;
61477;SDS011;47345;52.334;10.392;2024-03-02T08:24:40;23.30;;;14.70;;
61477;SDS011;47345;52.334;10.392;2024-03-02T08:27:11;23.80;;;15.00;;
61477;SDS011;47345;52.334;10.392;2024-03-02T08:29:42;23.40;;;14.80;;
61477;SDS011;47345;52.334;10.392;2024-03-02T08:32:12;23.40;;;14.80;;
61477;SDS011;47345;52.334;10.392;2024-03-02T08:34:45;22.60;;;13.30;;
61477;SDS011;47345;52.334;10.392;2024-03-02T08:37:15;21.10;;;13.70;;
61477;SDS011;47345;52.334;10.392;2024-03-02T08:39:46;21.90;;;13.40;;
61477;SDS011;47345;52.334;10.392;2024-03-02T08:42:16;20.80;;;13.50;;
61477;SDS011;47345;52.334;10.392;2024-03-02T08:44:47;22.40;;;13.50;;
61477;SDS011;47345;52.334;10.392;2024-03-02T08:47:18;18.50;;;12.60;;
61477;SDS011;47345;52.334;10.392;2024-03-02T08:49:48;24.10;;;13.10;;
61477;SDS011;47345;52.334;10.392;2024-03-02T08:52:21;21.20;;;13.40;;
61477;SDS011;47345;52.334;10.392;2024-03-02T08:54:51;21.70;;;13.40;;
61477;SDS011;47345;52.334;10.392;2024-03-02T08:57:22;21.60;;;12.50;;
61477;SDS011;47345;52.334;10.392;2024-03-02T08:59:52;19.70;;;12.90;;
61477;SDS011;47345;52.334;10.392;2024-03-02T09:02:24;20.30;;;12.90;;
61477;SDS011;47345;52.334;10.392;2024-03-02T09:04:55;19.20;;;12.60;;
61477;SDS011;47345;52.334;10.392;2024-03-02T09:07:26;17.80;;;11.10;;
61477;SDS011;47345;52.334;10.392;2024-03-02T09:09:56;20.00;;;12.80;;
61477;SDS011;47345;52.334;10.392;2024-03-02T09:12:27;28.40;;;12.60;;
61477;SDS011;47345;52.334;10.392;2024-03-02T09:14:58;21.30;;;12.60;;
61477;SDS011;47345;52.334;10.392;2024-03-02T09:17:30;21.50;;;13.10;;
61477;SDS011;47345;52.334;10.392;2024-03-02T09:20:01;17.40;;;12.20;;
61477;SDS011;47345;52.334;10.392;2024-03-02T09:22:32;18.50;;;12.00;;
61477;SDS011;47345;52.334;10.392;2024-03-02T09:25:03;22.80;;;13.20;;
61477;SDS011;47345;52.334;10.392;2024-03-02T09:27:37;20.50;;;12.10;;
61477;SDS011;47345;52.334;10.392;2024-03-02T09:30:09;20.20;;;11.90;;
61477;SDS011;47345;52.334;10.392;2024-03-02T09:32:41;18.60;;;11.80;;
61477;SDS011;47345;52.334;10.392;2024-03-02T09:35:13;18.80;;;12.10;;
61477;SDS011;47345;52.334;10.392;2024-03-02T09:37:44;18.80;;;11.50;;
61477;SDS011;47345;52.334;10.392;2024-03-02T09:40:15;17.60;;;11.20;;
61477;SDS011;47345;52.334;10.392;2024-03-02T09:42:50;17.50;;;11.10;;
61477;SDS011;47345;52.334;10.392;2024-03-02T09:45:23;17.90;;;12.00;;
61477;SDS011;47345;52.334;10.392;2024-03-02T09:47:54;16.60;;;11.60;;
61477;SDS011;47345;52.334;10.392;2024-03-02T09:50:25;19.60;;;12.00;;
61477;SDS011;47345;52.334;10.392;2024-03-02T09:52:55;16.70;;;10.50;;
61477;SDS011;47345;52.334;10.392;2024-03-02T09:55:27;17.90;;;11.40;;
61477;SDS011;47345;52.334;10.392;2024-03-02T09:57:58;16.30;;;11.00;;
61477;SDS011;47345;52.334;10.392;2024-03-02T10:00:29;15.50;;;10.40;;
61477;SDS011;47345;52.334;10.392;2024-03-02T10:02:59;15.60;;;10.60;;
61477;SDS011;47345;52.334;10.392;2024-03-02T10:05:32;15.50;;;9.70;;
61477;SDS011;47345;52.334;10.392;2024-03-02T10:08:03;17.40;;;9.60;;
61477;SDS011;47345;52.334;10.392;2024-03-02T10:10:38;14.10;;;10.00;;
61477;SDS011;47345;52.334;10.392;2024-03-02T10:13:11;17.50;;;9.80;;
61477;SDS011;47345;52.334;10.392;2024-03-02T10:15:42;15.80;;;10.70;;
61477;SDS011;47345;52.334;10.392;2024-03-02T10:18:14;15.60;;;10.20;;
61477;SDS011;47345;52.334;10.392;2024-03-02T10:20:57;14.50;;;9.80;;
61477;SDS011;47345;52.334;10.392;2024-03-02T10:23:43;14.20;;;9.20;;
61477;SDS011;47345;52.334;10.392;2024-03-02T10:26:17;15.70;;;9.50;;
61477;SDS011;47345;52.334;10.392;2024-03-02T10:28:48;12.10;;;8.10;;
61477;SDS011;47345;52.334;10.392;2024-03-02T10:31:26;13.30;;;7.60;;
61477;SDS011;47345;52.334;10.392;2024-03-02T10:33:57;11.80;;;8.30;;
61477;SDS011;47345;52.334;10.392;2024-03-02T10:36:28;13.60;;;7.90;;
61477;SDS011;47345;52.334;10.392;2024-03-02T10:38:58;12.90;;;8.30;;
61477;SDS011;47345;52.334;10.392;2024-03-02T10:41:32;13.40;;;9.00;;
61477;SDS011;47345;52.334;10.392;2024-03-02T10:44:03;13.90;;;8.60;;
61477;SDS011;47345;52.334;10.392;2024-03-02T10:46:35;17.10;;;9.10;;
61477;SDS011;47345;52.334;10.392;2024-03-02T10:49:06;16.80;;;9.30;;
61477;SDS011;47345;52.334;10.392;2024-03-02T10:51:36;15.10;;;8.80;;
61477;SDS011;47345;52.334;10.392;2024-03-02T10:54:07;13.40;;;9.40;;
61477;SDS011;47345;52.334;10.392;2024-03-02T10:56:39;13.50;;;8.90;;
61477;SDS011;47345;52.334;10.392;2024-03-02T10:59:15;13.80;;;9.50;;
61477;SDS011;47345;52.334;10.392;2024-03-02T11:01:55;12.30;;;8.40;;
61477;SDS011;47345;52.334;10.392;2024-03-02T11:04:33;12.80;;;8.40;;
61477;SDS011;47345;52.334;10.392;2024-03-02T11:07:06;13.70;;;8.40;;
61477;SDS011;47345;52.334;10.392;2024-03-02T11:09:38;15.40;;;8.20;;
61477;SDS011;47345;52.334;10.392;2024-03-02T11:12:15;14.80;;;8.60;;
61477;SDS011;47345;52.334;10.392;2024-03-02T11:14:56;13.40;;;8.10;;
61477;SDS011;47345;52.334;10.392;2024-03-02T11:17:29;14.40;;;8.80;;
61477;SDS011;47345;52.334;10.392;2024-03-02T11:19:59;13.80;;;9.10;;
61477;SDS011;47345;52.334;10.392;2024-03-02T11:22:31;14.90;;;9.00;;
61477;SDS011;47345;52.334;10.392;2024-03-02T11:25:03;13.10;;;8.50;;
61477;SDS011;47345;52.334;10.392;2024-03-02T11:28:01;16.00;;;9.20;;
61477;SDS011;47345;52.334;10.392;2024-03-02T11:30:53;12.80;;;9.00;;
61477;SDS011;47345;52.334;10.392;2024-03-02T11:33:24;13.00;;;9.30;;
61477;SDS011;47345;52.334;10.392;2024-03-02T11:35:57;12.10;;;8.40;;
61477;SDS011;47345;52.334;10.392;2024-03-02T11:38:30;14.00;;;9.40;;
61477;SDS011;47345;52.334;10.392;2024-03-02T11:41:02;15.00;;;8.90;;
61477;SDS011;47345;52.334;10.392;2024-03-02T11:43:38;24.50;;;15.20;;
61477;SDS011;47345;52.334;10.392;2024-03-02T11:46:12;13.40;;;9.10;;
61477;SDS011;47345;52.334;10.392;2024-03-02T11:48:44;12.00;;;8.30;;
61477;SDS011;47345;52.334;10.392;2024-03-02T11:51:16;12.00;;;8.40;;
61477;SDS011;47345;52.334;10.392;2024-03-02T11:53:47;12.90;;;8.40;;
61477;SDS011;47345;52.334;10.392;2024-03-02T11:56:18;12.80;;;8.20;;
61477;SDS011;47345;52.334;10.392;2024-03-02T11:58:50;14.60;;;8.70;;
61477;SDS011;47345;52.334;10.392;2024-03-02T12:01:23;14.80;;;9.70;;
61477;SDS011;47345;52.334;10.392;2024-03-02T12:03:54;14.00;;;9.70;;
61477;SDS011;47345;52.334;10.392;2024-03-02T12:06:27;15.20;;;9.10;;
61477;SDS011;47345;52.334;10.392;2024-03-02T12:08:58;13.00;;;9.00;;
61477;SDS011;47345;52.334;10.392;2024-03-02T12:11:29;12.40;;;8.40;;
61477;SDS011;47345;52.334;10.392;2024-03-02T12:13:59;13.30;;;9.00;;
61477;SDS011;47345;52.334;10.392;2024-03-02T12:16:32;13.80;;;8.70;;
61477;SDS011;47345;52.334;10.392;2024-03-02T12:19:05;12.20;;;8.20;;
61477;SDS011;47345;52.334;10.392;2024-03-02T12:21:36;12.10;;;7.80;;
61477;SDS011;47345;52.334;10.392;2024-03-02T12:24:06;16.40;;;8.60;;
61477;SDS011;47345;52.334;10.392;2024-03-02T12:26:37;14.70;;;9.10;;
61477;SDS011;47345;52.334;10.392;2024-03-02T12:29:09;12.60;;;9.20;;
61477;SDS011;47345;52.334;10.392;2024-03-02T12:31:40;13.10;;;9.20;;
61477;SDS011;47345;52.334;10.392;2024-03-02T12:34:13;10.20;;;7.40;;
61477;SDS011;47345;52.334;10.392;2024-03-02T12:36:45;10.50;;;5.90;;
61477;SDS011;47345;52.334;10.392;2024-03-02T12:39:20;8.10;;;5.50;;
61477;SDS011;47345;52.334;10.392;2024-03-02T12:41:50;7.30;;;4.70;;
61477;SDS011;47345;52.334;10.392;2024-03-02T12:44:22;9.40;;;5.10;;
61477;SDS011;47345;52.334;10.392;2024-03-02T12:46:52;7.90;;;5.20;;
61477;SDS011;47345;52.334;10.392;2024-03-02T12:49:29;7.40;;;5.20;;
61477;SDS011;47345;52.334;10.392;2024-03-02T12:52:00;8.40;;;6.10;;
61477;SDS011;47345;52.334;10.392;2024-03-02T12:54:31;7.80;;;5.30;;
61477;SDS011;47345;52.334;10.392;2024-03-02T12:57:03;5.30;;;3.40;;
61477;SDS011;47345;52.334;10.392;2024-03-02T12:59:34;5.70;;;3.20;;
61477;SDS011;47345;52.334;10.392;2024-03-02T13:02:05;3.10;;;2.10;;
61477;SDS011;47345;52.334;10.392;2024-03-02T13:04:38;4.10;;;2.00;;
61477;SDS011;47345;52.334;10.392;2024-03-02T13:07:09;1.80;;;1.60;;
61477;SDS011;47345;52.334;10.392;2024-03-02T13:09:41;3.00;;;1.70;;
61477;SDS011;47345;52.334;10.392;2024-03-02T13:12:11;2.70;;;1.70;;
61477;SDS011;47345;52.334;10.392;2024-03-02T13:14:43;2.60;;;1.90;;
61477;SDS011;47345;52.334;10.392;2024-03-02T13:17:16;3.30;;;2.10;;
61477;SDS011;47345;52.334;10.392;2024-03-02T13:19:54;1.70;;;1.60;;
61477;SDS011;47345;52.334;10.392;2024-03-02T13:22:25;3.10;;;2.10;;
61477;SDS011;47345;52.334;10.392;2024-03-02T13:24:59;2.60;;;1.70;;
61477;SDS011;47345;52.334;10.392;2024-03-02T13:27:32;4.70;;;3.00;;
61477;SDS011;47345;52.334;10.392;2024-03-02T13:30:03;7.20;;;3.70;;
61477;SDS011;47345;52.334;10.392;2024-03-02T13:32:37;5.70;;;3.30;;
61477;SDS011;47345;52.334;10.392;2024-03-02T13:35:07;10.10;;;3.20;;
61477;SDS011;47345;52.334;10.392;2024-03-02T13:37:38;3.60;;;2.80;;
61477;SDS011;47345;52.334;10.392;2024-03-02T13:40:12;4.10;;;3.00;;
61477;SDS011;47345;52.334;10.392;2024-03-02T13:42:50;3.60;;;2.30;;
61477;SDS011;47345;52.334;10.392;2024-03-02T13:45:22;5.30;;;2.40;;
61477;SDS011;47345;52.334;10.392;2024-03-02T13:47:55;3.10;;;2.20;;
61477;SDS011;47345;52.334;10.392;2024-03-02T13:50:26;6.60;;;2.30;;
61477;SDS011;47345;52.334;10.392;2024-03-02T13:52:58;4.20;;;2.00;;
61477;SDS011;47345;52.334;10.392;2024-03-02T13:55:28;2.20;;;1.80;;
61477;SDS011;47345;52.334;10.392;2024-03-02T13:58:01;4.90;;;2.10;;
61477;SDS011;47345;52.334;10.392;2024-03-02T14:00:32;2.30;;;1.90;;
61477;SDS011;47345;52.334;10.392;2024-03-02T14:03:04;2.60;;;1.90;;
61477;SDS011;47345;52.334;10.392;2024-03-02T14:05:35;2.50;;;1.80;;
61477;SDS011;47345;52.334;10.392;2024-03-02T14:08:06;3.20;;;1.80;;
61477;SDS011;47345;52.334;10.392;2024-03-02T14:10:36;2.20;;;1.50;;
61477;SDS011;47345;52.334;10.392;2024-03-02T14:13:07;2.40;;;1.90;;
61477;SDS011;47345;52.334;10.392;2024-03-02T14:15:37;1.60;;;1.40;;
61477;SDS011;47345;52.334;10.392;2024-03-02T14:18:08;3.70;;;2.10;;
61477;SDS011;47345;52.334;10.392;2024-03-02T14:20:39;7.20;;;2.00;;
61477;SDS011;47345;52.334;10.392;2024-03-02T14:23:12;1.60;;;1.50;;
61477;SDS011;47345;52.334;10.392;2024-03-02T14:25:43;2.20;;;1.80;;
61477;SDS011;47345;52.334;10.392;2024-03-02T14:28:14;2.50;;;1.70;;
61477;SDS011;47345;52.334;10.392;2024-03-02T14:31:05;2.10;;;1.20;;
61477;SDS011;47345;52.334;10.392;2024-03-02T14:33:36;2.00;;;1.50;;
61477;SDS011;47345;52.334;10.392;2024-03-02T14:36:07;1.70;;;1.50;;
61477;SDS011;47345;52.334;10.392;2024-03-02T14:38:38;4.10;;;2.20;;
61477;SDS011;47345;52.334;10.392;2024-03-02T14:41:08;3.00;;;1.90;;
61477;SDS011;47345;52.334;10.392;2024-03-02T14:43:39;3.80;;;2.00;;